sensor_id;sensor_type;location;lat;lon;timestamp;temperature;humidity
46159;DHT22;31888;44.512;26.104;2023-07-13T00:00:02;23.20;99.90
46159;DHT22;31888;44.512;26.104;2023-07-13T00:02:27;23.20;99.90
46159;DHT22;31888;44.512;26.104;2023-07-13T00:04:51;23.20;99.90
46159;DHT22;31888;44.512;26.104;2023-07-13T00:07:15;23.00;99.90
46159;DHT22;31888;44.512;26.104;2023-07-13T00:09:42;22.90;99.90
46159;DHT22;31888;44.512;26.104;2023-07-13T00:12:22;22.90;99.90
46159;DHT22;31888;44.512;26.104;2023-07-13T00:14:46;22.90;99.90
46159;DHT22;31888;44.512;26.104;2023-07-13T00:17:11;23.00;99.90
46159;DHT22;31888;44.512;26.104;2023-07-13T00:19:35;22.90;99.90
46159;DHT22;31888;44.512;26.104;2023-07-13T00:21:59;23.00;99.90
46159;DHT22;31888;44.512;26.104;2023-07-13T00:24:23;23.10;99.90
46159;DHT22;31888;44.512;26.104;2023-07-13T00:26:47;23.10;99.90
46159;DHT22;31888;44.512;26.104;2023-07-13T00:29:11;23.10;99.90
46159;DHT22;31888;44.512;26.104;2023-07-13T00:31:35;23.10;99.90
46159;DHT22;31888;44.512;26.104;2023-07-13T00:34:01;23.00;99.90
46159;DHT22;31888;44.512;26.104;2023-07-13T00:36:25;23.00;99.90
46159;DHT22;31888;44.512;26.104;2023-07-13T00:38:48;22.90;99.90
46159;DHT22;31888;44.512;26.104;2023-07-13T00:41:12;22.80;99.90
46159;DHT22;31888;44.512;26.104;2023-07-13T00:43:36;22.70;99.90
46159;DHT22;31888;44.512;26.104;2023-07-13T00:46:18;22.60;99.90
46159;DHT22;31888;44.512;26.104;2023-07-13T00:48:43;22.60;99.90
46159;DHT22;31888;44.512;26.104;2023-07-13T00:51:11;22.60;99.90
46159;DHT22;31888;44.512;26.104;2023-07-13T00:53:38;22.50;99.90
46159;DHT22;31888;44.512;26.104;2023-07-13T00:56:03;22.50;99.90
46159;DHT22;31888;44.512;26.104;2023-07-13T00:58:28;22.60;99.90
46159;DHT22;31888;44.512;26.104;2023-07-13T01:00:53;22.60;99.90
46159;DHT22;31888;44.512;26.104;2023-07-13T01:03:17;22.60;99.90
46159;DHT22;31888;44.512;26.104;2023-07-13T01:05:41;22.50;99.90
46159;DHT22;31888;44.512;26.104;2023-07-13T01:08:07;22.60;99.90
46159;DHT22;31888;44.512;26.104;2023-07-13T01:10:31;22.70;99.90
46159;DHT22;31888;44.512;26.104;2023-07-13T01:13:01;22.70;99.90
46159;DHT22;31888;44.512;26.104;2023-07-13T01:15:37;22.60;99.90
46159;DHT22;31888;44.512;26.104;2023-07-13T01:18:03;22.70;99.90
46159;DHT22;31888;44.512;26.104;2023-07-13T01:20:27;22.70;99.90
46159;DHT22;31888;44.512;26.104;2023-07-13T01:22:52;22.70;99.90
46159;DHT22;31888;44.512;26.104;2023-07-13T01:25:16;22.70;99.90
46159;DHT22;31888;44.512;26.104;2023-07-13T01:27:40;22.70;99.90
46159;DHT22;31888;44.512;26.104;2023-07-13T01:30:05;22.60;99.90
46159;DHT22;31888;44.512;26.104;2023-07-13T01:32:30;22.60;99.90
46159;DHT22;31888;44.512;26.104;2023-07-13T01:34:55;22.50;99.90
46159;DHT22;31888;44.512;26.104;2023-07-13T01:37:19;22.50;99.90
46159;DHT22;31888;44.512;26.104;2023-07-13T01:39:44;22.50;99.90
46159;DHT22;31888;44.512;26.104;2023-07-13T01:42:08;22.50;99.90
46159;DHT22;31888;44.512;26.104;2023-07-13T01:44:32;22.40;99.90
46159;DHT22;31888;44.512;26.104;2023-07-13T01:46:57;22.30;99.90
46159;DHT22;31888;44.512;26.104;2023-07-13T01:49:21;22.30;99.90
46159;DHT22;31888;44.512;26.104;2023-07-13T01:51:44;22.40;99.90
46159;DHT22;31888;44.512;26.104;2023-07-13T01:54:08;22.30;99.90
46159;DHT22;31888;44.512;26.104;2023-07-13T01:56:33;22.30;99.90
46159;DHT22;31888;44.512;26.104;2023-07-13T01:58:57;22.30;99.90
46159;DHT22;31888;44.512;26.104;2023-07-13T02:01:22;22.30;99.90
46159;DHT22;31888;44.512;26.104;2023-07-13T02:03:46;22.30;99.90
46159;DHT22;31888;44.512;26.104;2023-07-13T02:06:10;22.20;99.90
46159;DHT22;31888;44.512;26.104;2023-07-13T02:08:34;22.30;99.90
46159;DHT22;31888;44.512;26.104;2023-07-13T02:10:58;22.30;99.90
46159;DHT22;31888;44.512;26.104;2023-07-13T02:13:24;22.30;99.90
46159;DHT22;31888;44.512;26.104;2023-07-13T02:15:50;22.30;99.90
46159;DHT22;31888;44.512;26.104;2023-07-13T02:18:14;22.40;99.90
46159;DHT22;31888;44.512;26.104;2023-07-13T02:20:39;22.40;99.90
46159;DHT22;31888;44.512;26.104;2023-07-13T02:23:03;22.40;99.90
46159;DHT22;31888;44.512;26.104;2023-07-13T02:25:29;22.40;99.90
46159;DHT22;31888;44.512;26.104;2023-07-13T02:27:53;22.30;99.90
46159;DHT22;31888;44.512;26.104;2023-07-13T02:30:19;22.30;99.90
46159;DHT22;31888;44.512;26.104;2023-07-13T02:32:43;22.10;99.90
46159;DHT22;31888;44.512;26.104;2023-07-13T02:35:07;22.10;99.90
46159;DHT22;31888;44.512;26.104;2023-07-13T02:37:32;22.20;99.90
46159;DHT22;31888;44.512;26.104;2023-07-13T02:39:57;22.20;99.90
46159;DHT22;31888;44.512;26.104;2023-07-13T02:42:21;22.20;99.90
46159;DHT22;31888;44.512;26.104;2023-07-13T02:44:45;22.30;99.90
46159;DHT22;31888;44.512;26.104;2023-07-13T02:47:10;22.30;99.90
46159;DHT22;31888;44.512;26.104;2023-07-13T02:49:35;22.30;99.90
46159;DHT22;31888;44.512;26.104;2023-07-13T02:51:59;22.40;99.90
46159;DHT22;31888;44.512;26.104;2023-07-13T02:54:23;22.40;99.90
46159;DHT22;31888;44.512;26.104;2023-07-13T02:56:47;22.40;99.90
46159;DHT22;31888;44.512;26.104;2023-07-13T02:59:12;22.40;99.90
46159;DHT22;31888;44.512;26.104;2023-07-13T03:01:35;22.40;99.90
46159;DHT22;31888;44.512;26.104;2023-07-13T03:04:01;22.30;99.90
46159;DHT22;31888;44.512;26.104;2023-07-13T03:06:30;22.40;99.90
46159;DHT22;31888;44.512;26.104;2023-07-13T03:08:55;22.40;99.90
46159;DHT22;31888;44.512;26.104;2023-07-13T03:11:20;22.50;99.90
46159;DHT22;31888;44.512;26.104;2023-07-13T03:13:55;22.70;99.90
46159;DHT22;31888;44.512;26.104;2023-07-13T03:16:20;22.80;99.90
46159;DHT22;31888;44.512;26.104;2023-07-13T03:18:47;22.90;99.90
46159;DHT22;31888;44.512;26.104;2023-07-13T03:21:13;23.00;99.90
46159;DHT22;31888;44.512;26.104;2023-07-13T03:23:36;23.20;99.90
46159;DHT22;31888;44.512;26.104;2023-07-13T03:26:05;23.40;99.90
46159;DHT22;31888;44.512;26.104;2023-07-13T03:28:29;23.70;99.90
46159;DHT22;31888;44.512;26.104;2023-07-13T03:30:59;23.90;99.90
46159;DHT22;31888;44.512;26.104;2023-07-13T03:33:26;24.10;99.90
46159;DHT22;31888;44.512;26.104;2023-07-13T03:35:50;24.40;99.90
46159;DHT22;31888;44.512;26.104;2023-07-13T03:38:15;24.70;99.90
46159;DHT22;31888;44.512;26.104;2023-07-13T03:40:39;24.80;99.90
46159;DHT22;31888;44.512;26.104;2023-07-13T03:43:03;24.90;99.90
46159;DHT22;31888;44.512;26.104;2023-07-13T03:45:34;25.20;99.90
46159;DHT22;31888;44.512;26.104;2023-07-13T03:48:01;25.70;99.90
46159;DHT22;31888;44.512;26.104;2023-07-13T03:50:25;25.90;99.90
46159;DHT22;31888;44.512;26.104;2023-07-13T03:52:48;26.20;99.90
46159;DHT22;31888;44.512;26.104;2023-07-13T03:55:14;26.40;99.90
46159;DHT22;31888;44.512;26.104;2023-07-13T03:57:39;26.90;99.90
46159;DHT22;31888;44.512;26.104;2023-07-13T04:00:05;27.30;99.90
46159;DHT22;31888;44.512;26.104;2023-07-13T04:02:37;27.80;99.90
46159;DHT22;31888;44.512;26.104;2023-07-13T04:05:01;28.20;99.90
46159;DHT22;31888;44.512;26.104;2023-07-13T04:07:26;28.20;99.90
46159;DHT22;31888;44.512;26.104;2023-07-13T04:09:50;28.40;99.90
46159;DHT22;31888;44.512;26.104;2023-07-13T04:12:16;28.80;99.90
46159;DHT22;31888;44.512;26.104;2023-07-13T04:14:40;28.80;99.90
46159;DHT22;31888;44.512;26.104;2023-07-13T04:17:14;29.10;99.90
46159;DHT22;31888;44.512;26.104;2023-07-13T04:19:41;29.40;99.40
46159;DHT22;31888;44.512;26.104;2023-07-13T04:22:05;29.50;99.20
46159;DHT22;31888;44.512;26.104;2023-07-13T04:24:29;29.80;99.10
46159;DHT22;31888;44.512;26.104;2023-07-13T04:26:53;30.00;98.70
46159;DHT22;31888;44.512;26.104;2023-07-13T04:29:18;30.50;98.00
46159;DHT22;31888;44.512;26.104;2023-07-13T04:31:42;31.20;97.50
46159;DHT22;31888;44.512;26.104;2023-07-13T04:34:05;31.60;96.80
46159;DHT22;31888;44.512;26.104;2023-07-13T04:36:29;32.00;95.90
46159;DHT22;31888;44.512;26.104;2023-07-13T04:38:54;32.30;95.40
46159;DHT22;31888;44.512;26.104;2023-07-13T04:41:17;32.50;95.10
46159;DHT22;31888;44.512;26.104;2023-07-13T04:43:41;33.00;94.00
46159;DHT22;31888;44.512;26.104;2023-07-13T04:46:10;33.30;93.20
46159;DHT22;31888;44.512;26.104;2023-07-13T04:48:35;33.30;93.50
46159;DHT22;31888;44.512;26.104;2023-07-13T04:50:59;33.60;92.90
46159;DHT22;31888;44.512;26.104;2023-07-13T04:53:24;33.70;92.80
46159;DHT22;31888;44.512;26.104;2023-07-13T04:55:48;33.90;92.50
46159;DHT22;31888;44.512;26.104;2023-07-13T04:58:11;34.30;91.90
46159;DHT22;31888;44.512;26.104;2023-07-13T05:00:36;34.50;91.10
46159;DHT22;31888;44.512;26.104;2023-07-13T05:03:02;34.60;91.20
46159;DHT22;31888;44.512;26.104;2023-07-13T05:05:27;35.10;90.20
46159;DHT22;31888;44.512;26.104;2023-07-13T05:07:51;35.60;89.40
46159;DHT22;31888;44.512;26.104;2023-07-13T05:10:15;36.00;88.70
46159;DHT22;31888;44.512;26.104;2023-07-13T05:12:39;36.10;87.70
46159;DHT22;31888;44.512;26.104;2023-07-13T05:15:03;36.00;87.80
46159;DHT22;31888;44.512;26.104;2023-07-13T05:17:27;36.30;87.30
46159;DHT22;31888;44.512;26.104;2023-07-13T05:19:52;36.50;85.40
46159;DHT22;31888;44.512;26.104;2023-07-13T05:22:16;36.60;84.80
46159;DHT22;31888;44.512;26.104;2023-07-13T05:24:40;37.10;83.80
46159;DHT22;31888;44.512;26.104;2023-07-13T05:27:04;37.60;82.60
46159;DHT22;31888;44.512;26.104;2023-07-13T05:29:28;37.70;81.30
46159;DHT22;31888;44.512;26.104;2023-07-13T05:31:52;38.30;81.40
46159;DHT22;31888;44.512;26.104;2023-07-13T05:34:16;38.50;80.40
46159;DHT22;31888;44.512;26.104;2023-07-13T05:36:42;38.80;79.50
46159;DHT22;31888;44.512;26.104;2023-07-13T05:39:05;38.80;78.30
46159;DHT22;31888;44.512;26.104;2023-07-13T05:41:29;39.10;77.90
46159;DHT22;31888;44.512;26.104;2023-07-13T05:43:53;39.50;77.00
46159;DHT22;31888;44.512;26.104;2023-07-13T05:46:17;39.90;75.50
46159;DHT22;31888;44.512;26.104;2023-07-13T05:48:41;40.30;74.40
46159;DHT22;31888;44.512;26.104;2023-07-13T05:51:06;41.00;73.40
46159;DHT22;31888;44.512;26.104;2023-07-13T05:53:31;40.90;73.10
46159;DHT22;31888;44.512;26.104;2023-07-13T05:55:55;41.30;72.30
46159;DHT22;31888;44.512;26.104;2023-07-13T05:58:23;41.70;70.70
46159;DHT22;31888;44.512;26.104;2023-07-13T06:00:47;41.70;69.10
46159;DHT22;31888;44.512;26.104;2023-07-13T06:03:11;42.20;70.50
46159;DHT22;31888;44.512;26.104;2023-07-13T06:05:37;42.70;68.80
46159;DHT22;31888;44.512;26.104;2023-07-13T06:08:01;43.00;67.00
46159;DHT22;31888;44.512;26.104;2023-07-13T06:10:34;43.60;66.60
46159;DHT22;31888;44.512;26.104;2023-07-13T06:12:58;43.50;65.50
46159;DHT22;31888;44.512;26.104;2023-07-13T06:15:22;43.90;64.50
46159;DHT22;31888;44.512;26.104;2023-07-13T06:17:46;44.20;63.00
46159;DHT22;31888;44.512;26.104;2023-07-13T06:20:10;44.30;63.00
46159;DHT22;31888;44.512;26.104;2023-07-13T06:22:33;44.70;61.30
46159;DHT22;31888;44.512;26.104;2023-07-13T06:24:57;44.70;61.40
46159;DHT22;31888;44.512;26.104;2023-07-13T06:27:22;44.90;61.10
46159;DHT22;31888;44.512;26.104;2023-07-13T06:29:46;44.90;60.40
46159;DHT22;31888;44.512;26.104;2023-07-13T06:32:10;45.10;60.30
46159;DHT22;31888;44.512;26.104;2023-07-13T06:34:34;45.10;60.70
46159;DHT22;31888;44.512;26.104;2023-07-13T06:36:59;45.10;60.30
46159;DHT22;31888;44.512;26.104;2023-07-13T06:39:22;45.90;59.50
46159;DHT22;31888;44.512;26.104;2023-07-13T06:41:46;46.30;58.40
46159;DHT22;31888;44.512;26.104;2023-07-13T06:44:11;45.00;59.40
46159;DHT22;31888;44.512;26.104;2023-07-13T06:46:35;44.80;58.90
46159;DHT22;31888;44.512;26.104;2023-07-13T06:48:59;45.50;58.40
46159;DHT22;31888;44.512;26.104;2023-07-13T06:51:23;43.80;59.10
46159;DHT22;31888;44.512;26.104;2023-07-13T06:53:48;44.00;59.70
46159;DHT22;31888;44.512;26.104;2023-07-13T06:56:12;44.10;59.80
46159;DHT22;31888;44.512;26.104;2023-07-13T06:58:36;44.90;59.70
46159;DHT22;31888;44.512;26.104;2023-07-13T07:01:02;44.60;59.00
46159;DHT22;31888;44.512;26.104;2023-07-13T07:03:29;44.30;59.10
46159;DHT22;31888;44.512;26.104;2023-07-13T07:05:53;44.90;58.00
46159;DHT22;31888;44.512;26.104;2023-07-13T07:08:17;45.40;57.60
46159;DHT22;31888;44.512;26.104;2023-07-13T07:10:41;45.30;57.30
46159;DHT22;31888;44.512;26.104;2023-07-13T07:13:05;46.00;57.10
46159;DHT22;31888;44.512;26.104;2023-07-13T07:15:29;45.90;56.80
46159;DHT22;31888;44.512;26.104;2023-07-13T07:17:54;46.90;55.80
46159;DHT22;31888;44.512;26.104;2023-07-13T07:20:18;46.30;55.60
46159;DHT22;31888;44.512;26.104;2023-07-13T07:22:42;47.00;54.90
46159;DHT22;31888;44.512;26.104;2023-07-13T07:25:07;47.60;55.00
46159;DHT22;31888;44.512;26.104;2023-07-13T07:27:31;47.80;54.00
46159;DHT22;31888;44.512;26.104;2023-07-13T07:29:58;45.50;54.80
46159;DHT22;31888;44.512;26.104;2023-07-13T07:32:24;44.20;57.10
46159;DHT22;31888;44.512;26.104;2023-07-13T07:34:52;44.30;57.80
46159;DHT22;31888;44.512;26.104;2023-07-13T07:37:16;44.50;57.00
46159;DHT22;31888;44.512;26.104;2023-07-13T07:39:43;45.20;57.00
46159;DHT22;31888;44.512;26.104;2023-07-13T07:42:27;45.80;55.60
46159;DHT22;31888;44.512;26.104;2023-07-13T07:44:51;46.30;55.30
46159;DHT22;31888;44.512;26.104;2023-07-13T07:47:15;45.90;55.20
46159;DHT22;31888;44.512;26.104;2023-07-13T07:49:38;45.60;55.90
46159;DHT22;31888;44.512;26.104;2023-07-13T07:52:04;45.60;55.70
46159;DHT22;31888;44.512;26.104;2023-07-13T07:54:28;46.00;56.10
46159;DHT22;31888;44.512;26.104;2023-07-13T07:57:12;45.60;56.40
46159;DHT22;31888;44.512;26.104;2023-07-13T07:59:38;46.60;55.70
46159;DHT22;31888;44.512;26.104;2023-07-13T08:02:06;45.00;56.50
46159;DHT22;31888;44.512;26.104;2023-07-13T08:04:50;44.00;57.70
46159;DHT22;31888;44.512;26.104;2023-07-13T08:07:18;43.10;59.10
46159;DHT22;31888;44.512;26.104;2023-07-13T08:09:42;43.60;58.80
46159;DHT22;31888;44.512;26.104;2023-07-13T08:12:06;43.00;59.60
46159;DHT22;31888;44.512;26.104;2023-07-13T08:14:33;43.20;58.90
46159;DHT22;31888;44.512;26.104;2023-07-13T08:17:14;43.20;58.70
46159;DHT22;31888;44.512;26.104;2023-07-13T08:19:38;42.10;60.30
46159;DHT22;31888;44.512;26.104;2023-07-13T08:22:02;41.60;60.10
46159;DHT22;31888;44.512;26.104;2023-07-13T08:24:27;41.40;61.10
46159;DHT22;31888;44.512;26.104;2023-07-13T08:26:51;41.30;61.40
46159;DHT22;31888;44.512;26.104;2023-07-13T08:29:14;39.30;63.80
46159;DHT22;31888;44.512;26.104;2023-07-13T08:31:38;39.70;63.60
46159;DHT22;31888;44.512;26.104;2023-07-13T08:34:02;40.10;62.90
46159;DHT22;31888;44.512;26.104;2023-07-13T08:36:26;39.60;62.90
46159;DHT22;31888;44.512;26.104;2023-07-13T08:38:51;39.70;63.30
46159;DHT22;31888;44.512;26.104;2023-07-13T08:41:17;39.70;63.70
46159;DHT22;31888;44.512;26.104;2023-07-13T08:43:44;38.90;63.90
46159;DHT22;31888;44.512;26.104;2023-07-13T08:46:11;38.40;65.00
46159;DHT22;31888;44.512;26.104;2023-07-13T08:48:41;37.70;67.00
46159;DHT22;31888;44.512;26.104;2023-07-13T08:51:14;38.10;66.50
46159;DHT22;31888;44.512;26.104;2023-07-13T08:53:47;38.40;64.80
46159;DHT22;31888;44.512;26.104;2023-07-13T08:56:19;38.00;66.10
46159;DHT22;31888;44.512;26.104;2023-07-13T08:58:45;38.10;66.80
46159;DHT22;31888;44.512;26.104;2023-07-13T09:01:17;37.90;67.00
46159;DHT22;31888;44.512;26.104;2023-07-13T09:03:50;37.30;67.80
46159;DHT22;31888;44.512;26.104;2023-07-13T09:06:21;37.20;67.20
46159;DHT22;31888;44.512;26.104;2023-07-13T09:08:51;37.00;67.90
46159;DHT22;31888;44.512;26.104;2023-07-13T09:11:38;36.70;68.30
46159;DHT22;31888;44.512;26.104;2023-07-13T09:14:39;36.70;68.40
46159;DHT22;31888;44.512;26.104;2023-07-13T09:17:29;36.50;69.30
46159;DHT22;31888;44.512;26.104;2023-07-13T09:19:58;36.40;69.20
46159;DHT22;31888;44.512;26.104;2023-07-13T09:22:26;36.80;69.00
46159;DHT22;31888;44.512;26.104;2023-07-13T09:25:00;37.00;69.30
46159;DHT22;31888;44.512;26.104;2023-07-13T09:27:31;37.30;67.70
46159;DHT22;31888;44.512;26.104;2023-07-13T09:30:04;37.60;68.30
46159;DHT22;31888;44.512;26.104;2023-07-13T09:32:34;37.30;67.50
46159;DHT22;31888;44.512;26.104;2023-07-13T09:34:58;37.20;68.10
46159;DHT22;31888;44.512;26.104;2023-07-13T09:37:28;37.10;68.60
46159;DHT22;31888;44.512;26.104;2023-07-13T09:39:54;37.10;68.30
46159;DHT22;31888;44.512;26.104;2023-07-13T09:42:22;37.20;68.90
46159;DHT22;31888;44.512;26.104;2023-07-13T09:44:53;37.40;68.30
46159;DHT22;31888;44.512;26.104;2023-07-13T09:47:19;37.50;67.70
46159;DHT22;31888;44.512;26.104;2023-07-13T09:49:45;37.40;67.30
46159;DHT22;31888;44.512;26.104;2023-07-13T09:52:11;37.30;67.00
46159;DHT22;31888;44.512;26.104;2023-07-13T09:54:37;37.10;67.10
46159;DHT22;31888;44.512;26.104;2023-07-13T09:57:01;37.20;67.60
46159;DHT22;31888;44.512;26.104;2023-07-13T09:59:29;37.50;67.70
46159;DHT22;31888;44.512;26.104;2023-07-13T10:01:55;37.60;67.10
46159;DHT22;31888;44.512;26.104;2023-07-13T10:04:22;37.00;68.00
46159;DHT22;31888;44.512;26.104;2023-07-13T10:06:46;37.20;68.00
46159;DHT22;31888;44.512;26.104;2023-07-13T10:09:15;37.30;68.00
46159;DHT22;31888;44.512;26.104;2023-07-13T10:11:40;37.30;66.50
46159;DHT22;31888;44.512;26.104;2023-07-13T10:14:12;37.20;65.00
46159;DHT22;31888;44.512;26.104;2023-07-13T10:16:36;37.20;67.00
46159;DHT22;31888;44.512;26.104;2023-07-13T10:19:10;37.20;66.30
46159;DHT22;31888;44.512;26.104;2023-07-13T10:21:39;37.30;66.60
46159;DHT22;31888;44.512;26.104;2023-07-13T10:24:06;37.30;66.20
46159;DHT22;31888;44.512;26.104;2023-07-13T10:26:33;37.10;67.20
46159;DHT22;31888;44.512;26.104;2023-07-13T10:29:02;37.30;65.80
46159;DHT22;31888;44.512;26.104;2023-07-13T10:31:27;37.70;65.60
46159;DHT22;31888;44.512;26.104;2023-07-13T10:33:51;37.80;65.90
46159;DHT22;31888;44.512;26.104;2023-07-13T10:36:31;37.90;65.50
46159;DHT22;31888;44.512;26.104;2023-07-13T10:38:58;37.80;65.30
46159;DHT22;31888;44.512;26.104;2023-07-13T10:41:25;37.60;65.30
46159;DHT22;31888;44.512;26.104;2023-07-13T10:43:59;37.60;66.10
46159;DHT22;31888;44.512;26.104;2023-07-13T10:46:43;37.60;65.30
46159;DHT22;31888;44.512;26.104;2023-07-13T10:49:08;37.30;66.40
46159;DHT22;31888;44.512;26.104;2023-07-13T10:51:35;37.50;63.90
46159;DHT22;31888;44.512;26.104;2023-07-13T10:54:21;37.60;63.50
46159;DHT22;31888;44.512;26.104;2023-07-13T10:56:50;37.70;62.30
46159;DHT22;31888;44.512;26.104;2023-07-13T10:59:17;37.20;63.50
46159;DHT22;31888;44.512;26.104;2023-07-13T11:01:54;37.40;63.20
46159;DHT22;31888;44.512;26.104;2023-07-13T11:04:20;37.30;63.80
46159;DHT22;31888;44.512;26.104;2023-07-13T11:06:48;37.40;63.20
46159;DHT22;31888;44.512;26.104;2023-07-13T11:09:31;37.40;63.30
46159;DHT22;31888;44.512;26.104;2023-07-13T11:11:56;37.30;63.60
46159;DHT22;31888;44.512;26.104;2023-07-13T11:14:34;37.20;63.80
46159;DHT22;31888;44.512;26.104;2023-07-13T11:17:05;37.30;62.40
46159;DHT22;31888;44.512;26.104;2023-07-13T11:19:51;37.50;62.90
46159;DHT22;31888;44.512;26.104;2023-07-13T11:22:24;37.60;62.50
46159;DHT22;31888;44.512;26.104;2023-07-13T11:24:52;37.70;61.90
46159;DHT22;31888;44.512;26.104;2023-07-13T11:27:33;37.50;62.80
46159;DHT22;31888;44.512;26.104;2023-07-13T11:32:50;37.60;61.40
46159;DHT22;31888;44.512;26.104;2023-07-13T11:35:23;37.60;62.70
46159;DHT22;31888;44.512;26.104;2023-07-13T11:37:51;37.60;62.60
46159;DHT22;31888;44.512;26.104;2023-07-13T11:40:15;37.50;62.40
46159;DHT22;31888;44.512;26.104;2023-07-13T11:42:39;37.40;62.40
46159;DHT22;31888;44.512;26.104;2023-07-13T11:45:19;37.50;62.20
46159;DHT22;31888;44.512;26.104;2023-07-13T11:48:00;37.50;62.90
46159;DHT22;31888;44.512;26.104;2023-07-13T11:50:24;37.30;63.50
46159;DHT22;31888;44.512;26.104;2023-07-13T11:52:51;37.60;63.60
46159;DHT22;31888;44.512;26.104;2023-07-13T11:55:20;37.80;63.10
46159;DHT22;31888;44.512;26.104;2023-07-13T11:57:47;38.00;61.90
46159;DHT22;31888;44.512;26.104;2023-07-13T12:00:15;38.10;62.40
46159;DHT22;31888;44.512;26.104;2023-07-13T12:02:43;38.00;63.70
46159;DHT22;31888;44.512;26.104;2023-07-13T12:05:10;37.80;63.90
46159;DHT22;31888;44.512;26.104;2023-07-13T12:07:35;37.60;63.40
46159;DHT22;31888;44.512;26.104;2023-07-13T12:10:03;37.30;63.50
46159;DHT22;31888;44.512;26.104;2023-07-13T12:12:34;37.40;63.90
46159;DHT22;31888;44.512;26.104;2023-07-13T12:14:58;37.40;63.50
46159;DHT22;31888;44.512;26.104;2023-07-13T12:17:23;37.50;63.40
46159;DHT22;31888;44.512;26.104;2023-07-13T12:19:48;37.60;64.40
46159;DHT22;31888;44.512;26.104;2023-07-13T12:22:13;37.90;64.30
46159;DHT22;31888;44.512;26.104;2023-07-13T12:24:38;38.00;63.40
46159;DHT22;31888;44.512;26.104;2023-07-13T12:27:05;38.10;63.70
46159;DHT22;31888;44.512;26.104;2023-07-13T12:29:29;37.90;63.60
46159;DHT22;31888;44.512;26.104;2023-07-13T12:31:53;38.10;63.30
46159;DHT22;31888;44.512;26.104;2023-07-13T12:34:19;38.30;63.40
46159;DHT22;31888;44.512;26.104;2023-07-13T12:36:47;38.40;63.60
46159;DHT22;31888;44.512;26.104;2023-07-13T12:39:14;38.40;62.80
46159;DHT22;31888;44.512;26.104;2023-07-13T12:41:39;38.50;63.00
46159;DHT22;31888;44.512;26.104;2023-07-13T12:44:10;38.60;62.50
46159;DHT22;31888;44.512;26.104;2023-07-13T12:46:35;38.50;62.50
46159;DHT22;31888;44.512;26.104;2023-07-13T12:48:59;38.50;62.20
46159;DHT22;31888;44.512;26.104;2023-07-13T12:51:40;38.30;62.60
46159;DHT22;31888;44.512;26.104;2023-07-13T12:54:16;38.30;62.70
46159;DHT22;31888;44.512;26.104;2023-07-13T12:56:40;38.30;63.80
46159;DHT22;31888;44.512;26.104;2023-07-13T12:59:04;38.30;62.80
46159;DHT22;31888;44.512;26.104;2023-07-13T13:01:34;38.40;61.70
46159;DHT22;31888;44.512;26.104;2023-07-13T13:04:01;38.40;62.00
46159;DHT22;31888;44.512;26.104;2023-07-13T13:06:29;38.30;62.60
46159;DHT22;31888;44.512;26.104;2023-07-13T13:08:55;38.30;62.20
46159;DHT22;31888;44.512;26.104;2023-07-13T13:11:22;38.20;61.40
46159;DHT22;31888;44.512;26.104;2023-07-13T13:13:46;38.10;61.30
46159;DHT22;31888;44.512;26.104;2023-07-13T13:16:14;37.90;61.80
46159;DHT22;31888;44.512;26.104;2023-07-13T13:18:42;38.00;62.50
46159;DHT22;31888;44.512;26.104;2023-07-13T13:21:06;38.00;62.30
46159;DHT22;31888;44.512;26.104;2023-07-13T13:23:31;38.00;61.10
46159;DHT22;31888;44.512;26.104;2023-07-13T13:25:55;38.10;62.70
46159;DHT22;31888;44.512;26.104;2023-07-13T13:28:20;38.10;62.40
46159;DHT22;31888;44.512;26.104;2023-07-13T13:30:45;38.20;62.40
46159;DHT22;31888;44.512;26.104;2023-07-13T13:33:11;38.20;62.30
46159;DHT22;31888;44.512;26.104;2023-07-13T13:35:37;38.20;62.00
46159;DHT22;31888;44.512;26.104;2023-07-13T13:38:02;38.10;62.00
46159;DHT22;31888;44.512;26.104;2023-07-13T13:40:25;38.10;61.80
46159;DHT22;31888;44.512;26.104;2023-07-13T13:42:50;38.20;61.50
46159;DHT22;31888;44.512;26.104;2023-07-13T13:45:14;38.10;61.20
46159;DHT22;31888;44.512;26.104;2023-07-13T13:47:40;38.10;61.80
46159;DHT22;31888;44.512;26.104;2023-07-13T13:50:12;37.90;62.60
46159;DHT22;31888;44.512;26.104;2023-07-13T13:52:38;37.90;61.00
46159;DHT22;31888;44.512;26.104;2023-07-13T13:55:11;37.80;61.20
46159;DHT22;31888;44.512;26.104;2023-07-13T13:57:34;37.80;61.60
46159;DHT22;31888;44.512;26.104;2023-07-13T13:59:58;37.80;61.50
46159;DHT22;31888;44.512;26.104;2023-07-13T14:02:25;37.80;60.70
46159;DHT22;31888;44.512;26.104;2023-07-13T14:04:50;37.90;60.50
46159;DHT22;31888;44.512;26.104;2023-07-13T14:07:16;37.90;60.80
46159;DHT22;31888;44.512;26.104;2023-07-13T14:09:41;37.90;60.80
46159;DHT22;31888;44.512;26.104;2023-07-13T14:12:08;37.70;61.10
46159;DHT22;31888;44.512;26.104;2023-07-13T14:14:34;37.70;61.00
46159;DHT22;31888;44.512;26.104;2023-07-13T14:16:57;37.50;61.20
46159;DHT22;31888;44.512;26.104;2023-07-13T14:19:22;37.50;61.80
46159;DHT22;31888;44.512;26.104;2023-07-13T14:21:46;37.60;61.10
46159;DHT22;31888;44.512;26.104;2023-07-13T14:24:12;37.60;61.20
46159;DHT22;31888;44.512;26.104;2023-07-13T14:26:40;37.70;60.80
46159;DHT22;31888;44.512;26.104;2023-07-13T14:29:08;37.70;60.60
46159;DHT22;31888;44.512;26.104;2023-07-13T14:31:34;37.70;60.30
46159;DHT22;31888;44.512;26.104;2023-07-13T14:33:57;37.50;60.30
46159;DHT22;31888;44.512;26.104;2023-07-13T14:36:26;37.40;60.30
46159;DHT22;31888;44.512;26.104;2023-07-13T14:38:51;37.40;60.50
46159;DHT22;31888;44.512;26.104;2023-07-13T14:41:15;37.40;60.10
46159;DHT22;31888;44.512;26.104;2023-07-13T14:43:41;37.40;60.40
46159;DHT22;31888;44.512;26.104;2023-07-13T14:46:04;37.50;60.40
46159;DHT22;31888;44.512;26.104;2023-07-13T14:48:28;37.50;59.80
46159;DHT22;31888;44.512;26.104;2023-07-13T14:50:55;37.60;60.00
46159;DHT22;31888;44.512;26.104;2023-07-13T14:53:19;37.60;59.80
46159;DHT22;31888;44.512;26.104;2023-07-13T14:55:42;37.60;60.00
46159;DHT22;31888;44.512;26.104;2023-07-13T14:58:06;37.50;61.30
46159;DHT22;31888;44.512;26.104;2023-07-13T15:00:32;37.50;61.60
46159;DHT22;31888;44.512;26.104;2023-07-13T15:02:57;37.30;61.40
46159;DHT22;31888;44.512;26.104;2023-07-13T15:05:25;37.30;60.70
46159;DHT22;31888;44.512;26.104;2023-07-13T15:07:49;37.30;60.90
46159;DHT22;31888;44.512;26.104;2023-07-13T15:10:15;37.30;60.40
46159;DHT22;31888;44.512;26.104;2023-07-13T15:12:39;37.20;60.60